createdAt,value
2022-12-18T00:03:19.272Z,72.18
2022-12-18T00:08:21.237Z,72.00
2022-12-18T00:13:22.707Z,71.66
2022-12-18T00:18:24.117Z,72.03
2022-12-18T00:23:25.528Z,71.84
2022-12-18T00:28:26.993Z,72.37
2022-12-18T00:33:28.968Z,71.95
2022-12-18T00:38:30.394Z,71.50
2022-12-18T00:43:35.656Z,71.67
2022-12-18T00:48:37.306Z,71.56
2022-12-18T00:53:40.118Z,71.19
2022-12-18T00:58:41.932Z,71.53
2022-12-18T01:03:43.533Z,71.69
2022-12-18T01:08:45.662Z,71.20
2022-12-18T01:13:47.882Z,70.97
2022-12-18T01:18:53.739Z,70.30
2022-12-18T01:23:56.415Z,70.84
2022-12-18T01:28:59.062Z,70.71
2022-12-18T01:34:06.454Z,70.47
2022-12-18T01:39:15.114Z,70.92
2022-12-18T01:44:55.088Z,71.09
2022-12-18T01:49:59.386Z,71.02
2022-12-18T01:55:02.508Z,71.08
2022-12-18T02:00:30.898Z,70.83
2022-12-18T02:05:58.274Z,70.65
2022-12-18T02:11:26.907Z,70.55
2022-12-18T02:16:48.586Z,70.56
2022-12-18T02:22:08.434Z,70.49
2022-12-18T02:27:11.921Z,70.55
2022-12-18T02:32:18.717Z,70.77
2022-12-18T02:37:21.846Z,70.54
2022-12-18T02:42:25.282Z,70.49
2022-12-18T02:47:33.489Z,70.61
2022-12-18T02:52:55.507Z,70.51
2022-12-18T02:58:01.481Z,70.49
2022-12-18T03:03:20.450Z,71.21
2022-12-18T03:08:26.091Z,70.96
2022-12-18T03:13:37.145Z,70.80
2022-12-18T03:18:53.210Z,70.56
2022-12-18T03:23:56.479Z,70.67
2022-12-18T03:29:09.014Z,70.45
2022-12-18T03:34:20.778Z,70.46
2022-12-18T03:39:22.958Z,70.44
2022-12-18T03:44:40.798Z,70.00
2022-12-18T03:49:58.523Z,70.07
2022-12-18T03:55:04.169Z,70.15
2022-12-18T04:00:15.335Z,70.17
2022-12-18T04:05:30.822Z,69.72
2022-12-18T04:10:33.038Z,69.89
2022-12-18T04:15:39.528Z,70.40
2022-12-18T04:20:46.227Z,70.31
2022-12-18T04:25:48.278Z,70.42
2022-12-18T04:30:56.114Z,70.77
2022-12-18T04:35:57.817Z,70.55
2022-12-18T04:41:00.098Z,70.86
2022-12-18T04:46:07.198Z,70.69
2022-12-18T04:51:08.779Z,70.66
2022-12-18T04:56:13.957Z,70.95
2022-12-18T05:01:17.364Z,70.45
2022-12-18T05:06:19.093Z,70.65
2022-12-18T05:11:20.495Z,70.47
2022-12-18T05:16:21.921Z,70.35
2022-12-18T05:21:23.387Z,70.51
2022-12-18T05:26:24.824Z,70.63
2022-12-18T05:31:26.251Z,70.71
2022-12-18T05:36:27.756Z,70.75
2022-12-18T05:41:29.619Z,70.57
2022-12-18T05:46:31.086Z,70.17
2022-12-18T05:51:32.538Z,70.46
2022-12-18T05:56:33.960Z,69.94
2022-12-18T06:01:35.663Z,70.01
2022-12-18T06:06:37.649Z,69.90
2022-12-18T06:11:39.967Z,70.15
2022-12-18T06:16:41.390Z,69.99
2022-12-18T06:21:42.928Z,69.84
2022-12-18T06:26:44.358Z,70.10
2022-12-18T06:31:45.793Z,69.77
2022-12-18T06:36:47.314Z,69.85
2022-12-18T06:41:48.823Z,70.01
2022-12-18T06:46:50.339Z,69.61
2022-12-18T06:51:51.768Z,69.70
2022-12-18T06:56:53.150Z,69.45
2022-12-18T07:01:57.456Z,69.82
2022-12-18T07:06:58.930Z,70.07
2022-12-18T07:12:00.382Z,69.81
2022-12-18T07:17:01.856Z,69.91
2022-12-18T07:22:03.307Z,69.62
2022-12-18T07:27:06.044Z,69.82
2022-12-18T07:32:09.592Z,69.96
2022-12-18T07:37:11.311Z,69.82
2022-12-18T07:42:31.463Z,69.85
2022-12-18T07:47:36.034Z,69.95
2022-12-18T07:52:37.470Z,70.72
2022-12-18T07:57:50.518Z,70.88
2022-12-18T08:02:52.886Z,70.77
2022-12-18T08:07:54.639Z,70.90
2022-12-18T08:13:00.022Z,70.99
2022-12-18T08:18:04.491Z,70.80
2022-12-18T08:23:05.918Z,70.50
2022-12-18T08:28:07.319Z,71.45
2022-12-18T08:33:08.777Z,71.63
2022-12-18T08:38:10.226Z,71.60
2022-12-18T08:43:30.758Z,72.18
2022-12-18T08:48:32.222Z,71.94
2022-12-18T08:53:36.552Z,72.39
2022-12-18T08:58:38.190Z,72.96
2022-12-18T09:03:41.287Z,72.90
2022-12-18T09:08:44.570Z,73.19
2022-12-18T09:13:46.143Z,73.36
2022-12-18T09:18:48.307Z,73.94
2022-12-18T09:23:54.333Z,73.58
2022-12-18T09:28:56.786Z,74.01
2022-12-18T09:33:58.183Z,74.08
2022-12-18T09:39:02.611Z,74.13
2022-12-18T09:44:11.946Z,74.21
2022-12-18T09:49:17.134Z,74.74
2022-12-18T09:54:39.250Z,75.17
2022-12-18T09:59:47.279Z,74.52
2022-12-18T10:05:18.791Z,74.91
2022-12-18T10:10:38.760Z,75.23
2022-12-18T10:15:55.571Z,75.09
2022-12-18T10:21:04.628Z,75.27
2022-12-18T10:26:11.587Z,75.21
2022-12-18T10:31:20.643Z,75.43
2022-12-18T10:36:23.760Z,75.76
2022-12-18T10:41:27.843Z,75.87
2022-12-18T10:46:31.030Z,76.06
2022-12-18T10:51:38.467Z,76.04
2022-12-18T10:56:40.386Z,76.57
2022-12-18T11:01:58.528Z,76.46
2022-12-18T11:07:01.374Z,76.35
2022-12-18T11:12:07.074Z,76.84
2022-12-18T11:17:27.321Z,76.76
2022-12-18T11:22:34.112Z,76.69
2022-12-18T11:27:35.545Z,76.58
2022-12-18T11:32:39.171Z,77.35
2022-12-18T11:37:44.515Z,77.42
2022-12-18T11:42:52.811Z,77.36
2022-12-18T11:48:15.847Z,77.41
2022-12-18T11:53:17.930Z,77.75
2022-12-18T11:58:50.420Z,77.71
2022-12-18T12:04:29.682Z,78.04
2022-12-18T12:09:45.335Z,78.04
2022-12-18T12:15:22.516Z,78.32
2022-12-18T12:21:08.559Z,78.51
2022-12-18T12:26:17.343Z,78.27
2022-12-18T12:31:26.609Z,78.65
2022-12-18T12:36:40.159Z,78.20
2022-12-18T12:42:03.505Z,78.43
2022-12-18T12:47:17.299Z,78.41
2022-12-18T12:52:32.123Z,78.82
2022-12-18T12:57:44.358Z,78.29
2022-12-18T13:03:18.583Z,78.88
2022-12-18T13:08:26.526Z,78.50
2022-12-18T13:13:50.549Z,78.38
2022-12-18T13:18:55.302Z,77.95
2022-12-18T13:23:58.495Z,77.73
2022-12-18T13:29:00.596Z,77.55
2022-12-18T13:34:28.070Z,77.70
2022-12-18T13:39:35.769Z,77.58
2022-12-18T13:44:42.300Z,77.36
2022-12-18T13:49:44.952Z,77.52
2022-12-18T13:54:53.475Z,77.30
2022-12-18T13:59:58.441Z,77.21
2022-12-18T14:05:05.593Z,77.03
2022-12-18T14:15:47.672Z,76.74
2022-12-18T14:20:53.391Z,77.03
2022-12-18T14:25:57.762Z,76.55
2022-12-18T14:31:02.721Z,76.14
2022-12-18T14:36:06.328Z,75.79
2022-12-18T14:41:14.514Z,75.73
2022-12-18T14:46:31.165Z,75.36
2022-12-18T14:51:34.996Z,75.68
2022-12-18T14:56:44.360Z,75.47
2022-12-18T15:02:00.863Z,75.54
2022-12-18T15:07:12.738Z,75.05
2022-12-18T15:12:43.522Z,75.21
2022-12-18T15:17:45.086Z,75.24
2022-12-18T15:22:48.503Z,75.03
2022-12-18T15:27:50.295Z,75.13
2022-12-18T15:32:53.191Z,74.94
2022-12-18T15:37:54.683Z,75.17
2022-12-18T15:43:14.955Z,74.76
2022-12-18T15:48:23.141Z,74.61
2022-12-18T15:53:27.244Z,74.64
2022-12-18T15:58:28.798Z,74.63
2022-12-18T16:03:30.415Z,75.08
2022-12-18T16:08:32.637Z,75.32
2022-12-18T16:13:34.083Z,74.58
2022-12-18T16:18:36.163Z,74.61
2022-12-18T16:23:37.718Z,74.77
2022-12-18T16:28:43.828Z,74.79
2022-12-18T16:33:49.697Z,74.77
2022-12-18T16:38:51.179Z,75.17
2022-12-18T16:43:55.030Z,74.60
2022-12-18T16:48:59.340Z,74.89
2022-12-18T16:54:02.989Z,74.72
2022-12-18T16:59:09.890Z,74.70
2022-12-18T17:04:11.520Z,74.65
2022-12-18T17:09:15.831Z,75.16
2022-12-18T17:14:20.307Z,74.32
2022-12-18T17:19:24.823Z,75.01
2022-12-18T17:24:30.078Z,74.73
2022-12-18T17:29:34.782Z,74.86
2022-12-18T17:34:36.991Z,75.05
2022-12-18T17:39:39.139Z,74.79
2022-12-18T17:44:40.627Z,74.96
2022-12-18T17:49:42.397Z,75.06
2022-12-18T17:54:44.070Z,74.76
2022-12-18T17:59:45.486Z,75.11
2022-12-18T18:04:46.903Z,75.36
2022-12-18T18:09:48.321Z,75.34
2022-12-18T18:14:49.730Z,75.43
2022-12-18T18:19:51.550Z,75.58
2022-12-18T18:24:53.091Z,75.49
2022-12-18T18:29:54.670Z,75.42
2022-12-18T18:34:56.070Z,76.00
2022-12-18T18:39:57.534Z,75.72
2022-12-18T18:45:02.084Z,75.79
2022-12-18T18:50:03.840Z,75.91
2022-12-18T18:55:16.262Z,76.00
2022-12-18T19:00:25.611Z,75.95
2022-12-18T19:05:31.086Z,76.03
2022-12-18T19:10:32.571Z,76.10
2022-12-18T19:15:34.474Z,76.22
2022-12-18T19:20:36.407Z,76.44
2022-12-18T19:25:42.137Z,76.38
2022-12-18T19:30:45.017Z,76.52
2022-12-18T19:35:46.513Z,76.74
2022-12-18T19:40:48.534Z,76.83
2022-12-18T19:45:54.977Z,76.92
2022-12-18T19:50:56.507Z,76.74
2022-12-18T19:55:58.542Z,77.15
2022-12-18T20:01:00.075Z,76.94
2022-12-18T20:06:46.423Z,77.10
2022-12-18T20:11:48.132Z,77.12
2022-12-18T20:16:49.723Z,77.25
2022-12-18T20:21:51.727Z,76.98
2022-12-18T20:26:53.999Z,77.37
2022-12-18T20:31:55.462Z,77.12
2022-12-18T20:36:56.981Z,77.01
2022-12-18T20:41:58.792Z,77.50
2022-12-18T20:47:07.730Z,77.43
2022-12-18T20:52:10.191Z,77.51
2022-12-18T20:57:11.709Z,77.38
2022-12-18T21:02:14.059Z,77.40
2022-12-18T21:07:16.028Z,77.47
2022-12-18T21:12:45.278Z,77.36
2022-12-18T21:18:02.467Z,77.62
2022-12-18T21:23:16.049Z,77.51
2022-12-18T21:28:18.432Z,77.83
2022-12-18T21:33:20.184Z,77.82
2022-12-18T21:38:21.663Z,77.51
2022-12-18T21:43:41.946Z,77.97
2022-12-18T21:48:43.840Z,77.96
2022-12-18T21:53:45.321Z,77.53
2022-12-18T21:58:57.039Z,77.83
2022-12-18T22:03:58.846Z,77.80
2022-12-18T22:09:00.447Z,77.52
2022-12-18T22:14:01.945Z,77.75
2022-12-18T22:19:04.823Z,77.40
2022-12-18T22:24:29.215Z,77.44
2022-12-18T22:29:49.082Z,77.67
2022-12-18T22:34:50.497Z,77.65
2022-12-18T22:39:52.012Z,77.70
2022-12-18T22:44:53.953Z,77.48
2022-12-18T22:49:55.463Z,77.57
2022-12-18T22:54:56.859Z,77.51
2022-12-18T22:59:58.265Z,77.75
2022-12-18T23:05:00.422Z,78.34
2022-12-18T23:10:02.411Z,77.74
2022-12-18T23:15:05.140Z,77.76
2022-12-18T23:20:07.388Z,77.68
2022-12-18T23:25:09.862Z,77.79
2022-12-18T23:30:12.143Z,77.94
2022-12-18T23:35:15.567Z,77.65
2022-12-18T23:40:17.463Z,78.26
2022-12-18T23:45:18.895Z,78.03
2022-12-18T23:50:24.521Z,77.74
2022-12-18T23:55:31.239Z,77.57
